Time;durP1;ratioP1;P1;durP2;ratioP2;P2;SDS_P1;SDS_P2;PMS_P1;PMS_P2;Temp;Humidity;BMP_temperature;BMP_pressure;BME280_temperature;BME280_humidity;BME280_pressure;Samples;Min_cycle;Max_cycle;Signal;HPM_P1;HPM_P2
2021/03/02 00:01:59;;;;;;;16.77;9.83;;;;;;;4.44;100.00;103141.19;5153650;27;20472;-73
2021/03/02 00:04:25;;;;;;;14.77;10.30;;;;;;;4.50;100.00;103149.84;5154290;27;20435;-73
2021/03/02 00:06:52;;;;;;;14.80;9.50;;;;;;;4.59;100.00;103147.22;5156490;27;20402;-73
2021/03/02 00:09:18;;;;;;;15.10;10.67;;;;;;;4.58;100.00;103159.38;5156432;27;20802;-73
2021/03/02 00:11:45;;;;;;;16.87;10.97;;;;;;;4.71;100.00;103155.88;5156226;27;20392;-72
2021/03/02 00:14:10;;;;;;;22.43;11.80;;;;;;;4.77;100.00;103156.72;5145909;27;20449;-74
2021/03/02 00:16:37;;;;;;;15.43;10.30;;;;;;;4.79;100.00;103161.06;5135838;27;20538;-73
2021/03/02 00:19:12;;;;;;;17.63;9.53;;;;;;;4.86;100.00;103156.69;5136435;27;20192;-72
2021/03/02 00:21:42;;;;;;;16.60;10.90;;;;;;;4.85;100.00;103152.38;5134951;27;20414;-72
2021/03/02 00:24:13;;;;;;;16.60;10.77;;;;;;;4.87;100.00;103154.06;5136258;27;20474;-72
2021/03/02 00:26:46;;;;;;;15.77;10.13;;;;;;;4.94;100.00;103160.13;5135351;27;20790;-73
2021/03/02 00:29:12;;;;;;;17.93;11.40;;;;;;;4.93;100.00;103161.88;5138889;27;20413;-72
2021/03/02 00:31:42;;;;;;;17.37;11.50;;;;;;;4.95;100.00;103156.66;5150480;27;20459;-73
2021/03/02 00:34:07;;;;;;;16.70;12.17;;;;;;;4.92;100.00;103159.28;5135009;27;20402;-72
2021/03/02 00:36:33;;;;;;;15.43;11.20;;;;;;;4.85;100.00;103154.97;5135289;27;20392;-72
2021/03/02 00:38:58;;;;;;;18.13;10.80;;;;;;;4.93;100.00;103153.19;5135147;27;20193;-72
2021/03/02 00:41:24;;;;;;;15.00;10.30;;;;;;;4.90;100.00;103151.44;5134983;27;20187;-72
2021/03/02 00:43:53;;;;;;;18.87;11.83;;;;;;;4.92;100.00;103149.72;5139226;27;20161;-74
2021/03/02 00:46:18;;;;;;;31.53;18.53;;;;;;;4.88;100.00;103150.59;5147423;27;20265;-72
2021/03/02 00:48:44;;;;;;;16.93;11.20;;;;;;;4.85;100.00;103147.16;5150011;27;20501;-72
2021/03/02 00:51:09;;;;;;;16.87;10.57;;;;;;;4.86;100.00;103148.88;5155378;27;21005;-72
2021/03/02 00:53:35;;;;;;;21.83;11.97;;;;;;;4.86;100.00;103147.13;5155752;27;20233;-72
2021/03/02 00:56:00;;;;;;;17.07;11.33;;;;;;;4.83;100.00;103146.28;5155515;27;20169;-72
2021/03/02 00:58:26;;;;;;;17.07;10.67;;;;;;;4.91;100.00;103148.00;5154523;27;20165;-73
2021/03/02 01:00:51;;;;;;;20.00;10.80;;;;;;;4.88;100.00;103145.38;5139122;27;20166;-72
2021/03/02 01:03:17;;;;;;;15.40;10.27;;;;;;;4.96;100.00;103147.97;5133828;27;20742;-71
2021/03/02 01:05:42;;;;;;;17.03;10.30;;;;;;;4.91;100.00;103145.41;5134384;27;20162;-72
2021/03/02 01:08:08;;;;;;;15.37;9.50;;;;;;;4.99;100.00;103140.16;5147285;27;20166;-72
2021/03/02 01:10:34;;;;;;;14.70;9.90;;;;;;;4.94;100.00;103132.34;5149152;27;20590;-72
2021/03/02 01:12:59;;;;;;;15.80;10.87;;;;;;;4.83;100.00;103139.31;5134193;27;20618;-73
2021/03/02 01:15:25;;;;;;;16.23;11.00;;;;;;;4.86;100.00;103139.31;5134314;27;20155;-72
2021/03/02 01:17:50;;;;;;;15.07;10.07;;;;;;;4.85;100.00;103124.56;5134263;27;20163;-72
2021/03/02 01:20:16;;;;;;;15.33;10.40;;;;;;;4.81;100.00;103106.34;5134210;27;20159;-72
2021/03/02 01:22:41;;;;;;;12.60;9.63;;;;;;;4.78;100.00;103112.47;5135020;27;20645;-73
2021/03/02 01:25:11;;;;;;;18.87;11.90;;;;;;;4.82;100.00;103118.50;5134168;27;20300;-72
2021/03/02 01:27:37;;;;;;;13.40;9.70;;;;;;;4.77;100.00;103118.53;5134327;27;20162;-73
2021/03/02 01:30:09;;;;;;;17.30;9.77;;;;;;;4.87;100.00;103121.97;5133624;27;20473;-73
2021/03/02 01:32:35;;;;;;;13.40;8.80;;;;;;;4.79;100.00;103127.19;5137178;27;20427;-72
2021/03/02 01:35:00;;;;;;;16.07;10.03;;;;;;;4.83;100.00;103128.91;5154497;27;20407;-74
2021/03/02 01:37:26;;;;;;;14.57;9.27;;;;;;;4.88;100.00;103128.91;5154855;27;20552;-71
2021/03/02 01:39:51;;;;;;;18.57;10.33;;;;;;;4.90;100.00;103125.41;5143198;27;20639;-71
2021/03/02 01:42:17;;;;;;;17.87;11.40;;;;;;;4.86;100.00;103126.31;5134059;27;20163;-72
2021/03/02 01:44:42;;;;;;;15.40;10.10;;;;;;;4.87;100.00;103128.03;5133485;27;20688;-72
2021/03/02 01:47:08;;;;;;;14.33;9.77;;;;;;;4.94;100.00;103129.75;5135032;27;20660;-72
2021/03/02 01:49:34;;;;;;;12.97;8.77;;;;;;;4.86;100.00;103125.44;5133633;27;20189;-71
2021/03/02 01:52:00;;;;;;;11.60;7.67;;;;;;;5.01;100.00;103127.97;5143052;27;20226;-72
2021/03/02 01:54:26;;;;;;;11.50;7.57;;;;;;;4.99;100.00;103127.13;5139546;27;20416;-73
2021/03/02 01:56:51;;;;;;;13.70;8.80;;;;;;;4.90;100.00;103130.59;5132855;27;20161;-73
2021/03/02 01:59:18;;;;;;;16.90;10.43;;;;;;;4.90;100.00;103129.75;5133650;27;20393;-72
2021/03/02 02:01:43;;;;;;;12.50;8.43;;;;;;;4.88;100.00;103132.38;5135934;27;20166;-72
2021/03/02 02:04:20;;;;;;;15.70;9.87;;;;;;;4.81;100.00;103128.06;5145091;27;20479;-72
2021/03/02 02:07:03;;;;;;;14.93;9.47;;;;;;;4.78;100.00;103141.09;5133375;27;20189;-73
2021/03/02 02:09:37;;;;;;;14.20;9.10;;;;;;;4.77;100.00;103138.50;5135481;27;20419;-71
2021/03/02 02:12:02;;;;;;;15.10;9.30;;;;;;;4.77;100.00;103141.97;5133308;27;20774;-72
2021/03/02 02:15:05;;;;;;;15.77;10.40;;;;;;;4.90;100.00;103140.16;5131882;27;20920;-72
2021/03/02 02:17:49;;;;;;;15.27;9.13;;;;;;;4.85;100.00;103134.13;5113757;27;20186;-72
2021/03/02 02:20:24;;;;;;;15.40;8.80;;;;;;;4.91;100.00;103140.19;5153884;27;20394;-71
2021/03/02 02:22:55;;;;;;;15.53;10.40;;;;;;;4.73;100.00;103135.03;5135641;27;20431;-72
2021/03/02 02:25:27;;;;;;;15.73;10.40;;;;;;;4.73;100.00;103145.44;5132326;27;20452;-71
2021/03/02 02:27:55;;;;;;;14.30;9.40;;;;;;;4.85;100.00;103147.16;5136390;27;20436;-72
2021/03/02 02:30:22;;;;;;;14.77;9.30;;;;;;;4.74;100.00;103145.44;5152711;27;20453;-74
2021/03/02 02:32:50;;;;;;;14.20;9.10;;;;;;;4.81;100.00;103153.22;5146543;27;20913;-73
2021/03/02 02:35:20;;;;;;;18.17;9.40;;;;;;;4.83;100.00;103152.34;5132902;27;20391;-72
2021/03/02 02:37:51;;;;;;;14.50;8.70;;;;;;;4.87;100.00;103159.28;5132693;27;20404;-73
2021/03/02 02:40:19;;;;;;;17.40;10.13;;;;;;;4.80;100.00;103160.19;5133913;27;20407;-72
2021/03/02 02:42:48;;;;;;;13.80;9.33;;;;;;;4.69;100.00;103165.44;5132699;27;20396;-74
2021/03/02 02:45:16;;;;;;;15.80;9.57;;;;;;;4.61;100.00;103168.91;5132688;27;20449;-72
2021/03/02 02:47:42;;;;;;;15.60;9.70;;;;;;;4.69;100.00;103172.38;5148939;27;20502;-72
2021/03/02 02:50:09;;;;;;;16.73;9.63;;;;;;;4.80;100.00;103173.19;5153018;27;20457;-73
2021/03/02 02:52:35;;;;;;;16.00;9.67;;;;;;;4.74;100.00;103166.25;5137816;27;20917;-72
2021/03/02 02:55:02;;;;;;;15.57;9.80;;;;;;;4.68;100.00;103163.69;5132743;27;20408;-73
2021/03/02 02:57:30;;;;;;;18.07;10.60;;;;;;;4.67;100.00;103172.34;5132408;27;20732;-72
2021/03/02 02:59:58;;;;;;;14.30;8.40;;;;;;;4.74;100.00;103168.00;5137743;27;20783;-73
2021/03/02 03:02:27;;;;;;;16.87;10.83;;;;;;;4.66;100.00;103173.22;5151344;27;20935;-71
2021/03/02 03:05:01;;;;;;;14.60;9.57;;;;;;;4.59;100.00;103178.47;5150802;27;20407;-72
2021/03/02 03:07:36;;;;;;;16.47;11.00;;;;;;;4.40;100.00;103168.09;5151853;27;20411;-72
2021/03/02 03:10:05;;;;;;;15.67;10.30;;;;;;;4.47;100.00;103171.56;5142649;27;20474;-73
2021/03/02 03:12:34;;;;;;;17.67;10.70;;;;;;;4.63;100.00;103177.59;5146986;27;20460;-71
2021/03/02 03:15:03;;;;;;;21.43;11.70;;;;;;;4.55;100.00;103177.63;5145659;27;20411;-73
2021/03/02 03:17:33;;;;;;;16.17;10.63;;;;;;;4.51;100.00;103180.22;5152103;27;20936;-71
2021/03/02 03:20:00;;;;;;;19.83;12.23;;;;;;;4.52;100.00;103174.13;5152863;27;20399;-72
2021/03/02 03:22:28;;;;;;;19.60;12.43;;;;;;;4.43;100.00;103172.44;5151624;27;20411;-70
2021/03/02 03:24:55;;;;;;;15.53;11.07;;;;;;;4.39;100.00;103184.59;5152693;27;20964;-70
2021/03/02 03:27:21;;;;;;;20.37;13.10;;;;;;;4.43;100.00;103185.44;5153258;27;20386;-73
2021/03/02 03:29:48;;;;;;;17.93;11.30;;;;;;;4.48;100.00;103185.44;5152807;27;20505;-72
2021/03/02 03:32:14;;;;;;;21.10;13.40;;;;;;;4.49;100.00;103180.22;5153798;27;20158;-72
2021/03/02 03:34:42;;;;;;;16.20;10.13;;;;;;;4.51;100.00;103185.41;5148463;27;20441;-69
2021/03/02 03:37:08;;;;;;;18.27;11.00;;;;;;;4.44;100.00;103176.75;5152787;27;20463;-72
2021/03/02 03:39:34;;;;;;;18.27;11.73;;;;;;;4.42;100.00;103173.31;5156958;27;20411;-75
2021/03/02 03:42:00;;;;;;;13.23;8.00;;;;;;;4.39;100.00;103183.72;5157318;27;20551;-71
2021/03/02 03:44:25;;;;;;;19.40;12.20;;;;;;;4.30;100.00;103186.31;5157115;27;20234;-72
2021/03/02 03:46:51;;;;;;;24.40;11.83;;;;;;;4.22;100.00;103185.47;5156502;27;20411;-72
2021/03/02 03:49:16;;;;;;;18.80;10.93;;;;;;;4.16;100.00;103182.00;5139231;27;20674;-73
2021/03/02 03:51:43;;;;;;;16.30;9.53;;;;;;;4.23;100.00;103172.44;5156761;27;20190;-72
2021/03/02 03:54:11;;;;;;;16.40;10.40;;;;;;;4.33;100.00;103183.72;5156578;27;20177;-72
2021/03/02 03:56:38;;;;;;;19.00;11.67;;;;;;;4.28;100.00;103177.66;5154420;27;20526;-72
2021/03/02 03:59:04;;;;;;;16.83;11.80;;;;;;;4.28;100.00;103182.84;5154801;27;20861;-72
2021/03/02 04:01:31;;;;;;;17.10;10.97;;;;;;;4.31;100.00;103178.53;5147284;27;20998;-71
2021/03/02 04:03:57;;;;;;;18.87;11.10;;;;;;;4.38;100.00;103181.97;5147068;27;20533;-72
2021/03/02 04:06:23;;;;;;;17.43;11.07;;;;;;;4.39;100.00;103175.91;5135330;27;20408;-71
2021/03/02 04:08:49;;;;;;;17.00;10.87;;;;;;;4.37;100.00;103177.63;5139301;27;20166;-73
2021/03/02 04:11:15;;;;;;;16.90;10.47;;;;;;;4.34;100.00;103173.31;5154715;27;20237;-72
2021/03/02 04:13:40;;;;;;;17.83;10.53;;;;;;;4.28;100.00;103169.84;5138393;27;20414;-72
2021/03/02 04:16:06;;;;;;;16.37;10.90;;;;;;;4.27;100.00;103181.13;5155752;27;20158;-71
2021/03/02 04:18:32;;;;;;;15.63;9.00;;;;;;;4.34;100.00;103170.72;5156112;27;20161;-71
2021/03/02 04:21:01;;;;;;;14.80;10.13;;;;;;;4.35;100.00;103176.78;5155582;27;20615;-73
2021/03/02 04:23:26;;;;;;;18.97;10.70;;;;;;;4.33;100.00;103161.16;5155330;27;20399;-72
2021/03/02 04:25:52;;;;;;;16.00;10.10;;;;;;;4.32;100.00;103163.78;5153816;27;20454;-72
2021/03/02 04:28:17;;;;;;;10.47;7.10;;;;;;;4.24;100.00;103165.53;5156524;27;20162;-73
2021/03/02 04:30:43;;;;;;;18.90;10.07;;;;;;;4.22;100.00;103159.44;5156115;27;20270;-73
2021/03/02 04:33:08;;;;;;;22.80;11.33;;;;;;;4.21;100.00;103162.91;5155664;27;20173;-73
2021/03/02 04:35:34;;;;;;;13.60;9.30;;;;;;;4.21;100.00;103160.31;5156269;27;20206;-74
2021/03/02 04:38:00;;;;;;;15.13;9.30;;;;;;;4.15;100.00;103164.66;5156155;27;20158;-72
2021/03/02 04:40:26;;;;;;;13.90;9.60;;;;;;;4.23;100.00;103163.78;5155124;27;20407;-72
2021/03/02 04:42:51;;;;;;;17.30;10.83;;;;;;;4.26;100.00;103166.38;5143243;27;20827;-73
2021/03/02 04:45:17;;;;;;;20.57;9.57;;;;;;;4.25;100.00;103168.13;5134964;27;20170;-74
2021/03/02 04:47:45;;;;;;;15.50;9.07;;;;;;;4.18;100.00;103167.25;5139590;27;20192;-74
2021/03/02 04:50:12;;;;;;;18.23;9.87;;;;;;;4.20;100.00;103166.38;5155806;27;20189;-73
2021/03/02 04:52:38;;;;;;;15.03;9.13;;;;;;;4.18;100.00;103163.78;5155788;27;20375;-72
2021/03/02 04:55:05;;;;;;;16.03;9.50;;;;;;;4.30;100.00;103176.78;5155441;27;20398;-75
2021/03/02 04:57:30;;;;;;;15.90;10.23;;;;;;;4.39;100.00;103170.72;5155490;27;20895;-75
2021/03/02 04:59:56;;;;;;;19.43;10.80;;;;;;;4.37;100.00;103167.22;5151114;27;20912;-70
2021/03/02 05:02:21;;;;;;;19.23;10.10;;;;;;;4.31;100.00;103180.28;5142149;27;20231;-72
2021/03/02 05:04:47;;;;;;;14.67;9.30;;;;;;;4.47;100.00;103170.69;5155186;27;20581;-72
2021/03/02 05:07:12;;;;;;;15.00;9.67;;;;;;;4.38;100.00;103162.03;5155467;27;20162;-72
2021/03/02 05:09:38;;;;;;;17.83;9.43;;;;;;;4.53;100.00;103161.13;5155161;27;20196;-71
2021/03/02 05:12:03;;;;;;;15.03;8.93;;;;;;;4.48;100.00;103162.88;5155027;27;20201;-71
2021/03/02 05:14:29;;;;;;;15.50;9.30;;;;;;;4.58;100.00;103164.59;5154667;27;20550;-72
2021/03/02 05:16:54;;;;;;;10.60;5.73;;;;;;;4.64;100.00;103167.19;5154932;27;20166;-73
2021/03/02 05:19:20;;;;;;;18.43;8.30;;;;;;;4.60;100.00;103170.66;5153565;27;20659;-73
2021/03/02 05:21:45;;;;;;;24.47;10.60;;;;;;;4.55;100.00;103175.00;5154941;27;20240;-73
2021/03/02 05:24:11;;;;;;;15.33;8.20;;;;;;;4.51;100.00;103175.88;5154217;27;20297;-73
2021/03/02 05:26:37;;;;;;;16.77;9.43;;;;;;;4.45;100.00;103178.47;5154942;27;20161;-72
2021/03/02 05:29:02;;;;;;;13.47;8.00;;;;;;;4.54;100.00;103186.31;5154872;27;20433;-73
2021/03/02 05:31:28;;;;;;;16.03;10.27;;;;;;;4.55;100.00;103184.56;5149947;27;20507;-73
2021/03/02 05:33:53;;;;;;;24.10;10.73;;;;;;;4.66;100.00;103185.38;5151533;27;20631;-73
2021/03/02 05:36:19;;;;;;;13.20;8.40;;;;;;;4.75;100.00;103190.56;5154212;27;20295;-72
2021/03/02 05:38:44;;;;;;;14.60;9.13;;;;;;;4.68;100.00;103194.91;5154311;27;20162;-72
2021/03/02 05:41:11;;;;;;;16.27;9.47;;;;;;;4.62;100.00;103192.34;5154470;27;20149;-74
2021/03/02 05:43:41;;;;;;;15.73;8.40;;;;;;;4.68;100.00;103200.13;5153973;27;20204;-73
2021/03/02 05:46:07;;;;;;;17.43;9.53;;;;;;;4.71;100.00;103196.66;5154363;27;20414;-73
2021/03/02 05:48:33;;;;;;;19.50;10.60;;;;;;;4.81;100.00;103198.38;5154227;27;20864;-73
2021/03/02 05:50:59;;;;;;;14.00;8.30;;;;;;;4.86;100.00;103203.56;5152931;27;20902;-73
2021/03/02 05:53:25;;;;;;;11.13;8.10;;;;;;;4.81;100.00;103194.91;5153906;27;20900;-73
2021/03/02 05:55:51;;;;;;;16.13;9.33;;;;;;;4.92;100.00;103207.03;5154113;27;20160;-73
2021/03/02 05:58:16;;;;;;;18.80;8.57;;;;;;;4.94;100.00;103200.06;5153203;27;20199;-73
2021/03/02 06:00:45;;;;;;;17.20;9.03;;;;;;;5.00;100.00;103205.25;5151230;27;20574;-73
2021/03/02 06:03:11;;;;;;;12.30;7.97;;;;;;;4.98;100.00;103206.13;5153733;27;20427;-73
2021/03/02 06:05:36;;;;;;;15.33;8.00;;;;;;;4.95;100.00;103206.13;5154171;27;20422;-74
2021/03/02 06:08:03;;;;;;;16.00;9.30;;;;;;;5.03;100.00;103211.31;5153011;27;20154;-71
2021/03/02 06:10:30;;;;;;;11.43;8.53;;;;;;;5.05;100.00;103209.56;5153709;27;20174;-72
2021/03/02 06:12:57;;;;;;;14.03;7.90;;;;;;;5.13;100.00;103200.84;5153935;27;20401;-73
2021/03/02 06:15:24;;;;;;;13.23;9.33;;;;;;;5.21;100.00;103203.41;5153827;27;20392;-72
2021/03/02 06:18:12;;;;;;;14.10;9.40;;;;;;;5.43;100.00;103193.75;5153386;27;20390;-72
2021/03/02 06:20:39;;;;;;;14.10;9.63;;;;;;;5.57;100.00;103203.22;5151231;27;20463;-74
2021/03/02 06:23:25;;;;;;;12.67;8.60;;;;;;;5.70;100.00;103206.63;5151208;27;20495;-73
2021/03/02 06:25:52;;;;;;;11.57;9.00;;;;;;;5.62;100.00;103198.00;5146143;27;20527;-73
2021/03/02 06:28:43;;;;;;;12.90;9.70;;;;;;;5.55;100.00;103197.16;5153643;27;20465;-73
2021/03/02 06:31:34;;;;;;;12.97;8.87;;;;;;;5.63;100.00;103201.47;5152972;27;20530;-73
2021/03/02 06:34:17;;;;;;;14.47;8.83;;;;;;;5.71;100.00;103204.91;5134698;27;20832;-73
2021/03/02 06:36:58;;;;;;;12.93;8.60;;;;;;;5.84;100.00;103206.56;5153230;27;20563;-73
2021/03/02 06:39:34;;;;;;;10.53;7.53;;;;;;;5.95;100.00;103198.66;5154506;27;20496;-72
2021/03/02 06:42:18;;;;;;;11.67;7.87;;;;;;;6.09;100.00;103191.59;5152521;27;20414;-72
2021/03/02 06:44:46;;;;;;;17.83;9.57;;;;;;;6.29;100.00;103189.69;5155169;27;20398;-72
2021/03/02 06:47:14;;;;;;;12.67;8.30;;;;;;;6.38;100.00;103191.34;5130624;27;20432;-72
2021/03/02 06:49:42;;;;;;;13.90;8.80;;;;;;;6.58;100.00;103185.94;5151229;27;20793;-72
2021/03/02 06:52:19;;;;;;;18.27;11.20;;;;;;;6.58;100.00;103192.00;5152626;27;20426;-72
2021/03/02 06:54:49;;;;;;;13.00;9.27;;;;;;;6.68;100.00;103182.31;5152527;27;20870;-73
2021/03/02 06:57:33;;;;;;;12.43;8.30;;;;;;;6.88;100.00;103175.13;5152254;27;20951;-73
2021/03/02 07:00:02;;;;;;;13.30;8.40;;;;;;;6.85;100.00;103177.75;5148228;27;20407;-72
2021/03/02 07:02:38;;;;;;;10.13;7.93;;;;;;;7.02;100.00;103176.69;5151914;27;20816;-72
2021/03/02 07:05:15;;;;;;;9.27;7.10;;;;;;;6.72;100.00;103176.16;5152032;27;20418;-73
2021/03/02 07:07:45;;;;;;;17.53;8.63;;;;;;;6.79;100.00;103188.28;5167472;27;20473;-74
2021/03/02 07:10:12;;;;;;;15.50;8.67;;;;;;;6.81;100.00;103188.28;5150894;27;20447;-71
2021/03/02 07:12:40;;;;;;;13.20;8.40;;;;;;;7.08;100.00;103182.72;5131442;27;20529;-72
2021/03/02 07:15:08;;;;;;;10.13;6.70;;;;;;;6.93;100.00;103180.28;5152455;27;20399;-72
2021/03/02 07:17:42;;;;;;;10.70;6.77;;;;;;;6.93;100.00;103178.53;5152684;27;20472;-73
2021/03/02 07:20:10;;;;;;;10.63;6.50;;;;;;;6.79;100.00;103177.81;5152363;27;20387;-73
2021/03/02 07:22:38;;;;;;;10.17;6.83;;;;;;;6.54;100.00;103181.59;5148505;27;20628;-74
2021/03/02 07:25:08;;;;;;;8.13;6.20;;;;;;;6.57;100.00;103182.41;5173090;27;20446;-74
2021/03/02 07:27:39;;;;;;;11.80;5.67;;;;;;;6.75;100.00;103188.34;5168477;27;20394;-72
2021/03/02 07:30:05;;;;;;;7.00;5.17;;;;;;;6.72;100.00;103170.06;5151604;27;20435;-72
2021/03/02 07:32:31;;;;;;;10.60;6.20;;;;;;;7.08;100.00;103167.03;5151541;27;20404;-73
2021/03/02 07:34:58;;;;;;;14.60;5.87;;;;;;;7.28;100.00;103156.31;5144727;27;20415;-74
2021/03/02 07:37:24;;;;;;;8.00;5.17;;;;;;;7.32;100.00;103157.13;5137854;27;20391;-72
2021/03/02 07:40:09;;;;;;;9.47;5.00;;;;;;;7.30;100.00;103159.75;5152718;27;20448;-72
2021/03/02 07:42:35;;;;;;;9.27;5.67;;;;;;;7.40;100.00;103147.41;5145246;27;20431;-74
2021/03/02 07:45:05;;;;;;;9.30;4.80;;;;;;;7.47;100.00;103142.06;5172514;27;20816;-75
2021/03/02 07:47:50;;;;;;;6.47;4.60;;;;;;;7.90;100.00;103157.09;5173490;27;20402;-74
2021/03/02 07:50:24;;;;;;;6.73;4.10;;;;;;;8.30;100.00;103144.16;5154339;27;20451;-73
2021/03/02 07:53:19;;;;;;;8.67;4.70;;;;;;;8.65;100.00;103147.06;5146755;27;20912;-75
2021/03/02 07:55:45;;;;;;;7.30;4.53;;;;;;;8.35;100.00;103138.91;5132045;27;20404;-73
2021/03/02 07:58:28;;;;;;;7.60;5.10;;;;;;;8.86;100.00;103134.38;5131342;28;20411;-73
2021/03/02 08:01:20;;;;;;;5.90;3.90;;;;;;;9.02;100.00;103132.31;5142490;27;20452;-73
2021/03/02 08:03:46;;;;;;;6.33;4.77;;;;;;;8.86;100.00;103128.28;5149451;27;20415;-73
2021/03/02 08:06:29;;;;;;;7.37;4.33;;;;;;;8.67;100.00;103143.50;5152217;27;20969;-71
2021/03/02 08:08:55;;;;;;;6.00;4.23;;;;;;;8.96;100.00;103134.19;5139245;27;20169;-72
2021/03/02 08:11:55;;;;;;;7.07;4.17;;;;;;;9.01;100.00;103133.19;5151034;27;20461;-75
2021/03/02 08:14:21;;;;;;;10.87;4.90;;;;;;;9.15;100.00;103139.00;5150924;27;20182;-76
2021/03/02 08:17:00;;;;;;;7.00;4.53;;;;;;;9.30;100.00;103129.06;5152137;27;20551;-74
2021/03/02 08:19:47;;;;;;;8.50;4.93;;;;;;;9.38;100.00;103130.63;5150079;27;20588;-73
2021/03/02 08:22:18;;;;;;;6.37;4.03;;;;;;;9.35;100.00;103133.28;5132169;27;20408;-76
2021/03/02 08:24:56;;;;;;;4.70;3.40;;;;;;;9.67;100.00;103129.03;5134335;27;20834;-71
2021/03/02 08:27:45;;;;;;;7.97;4.63;;;;;;;9.93;100.00;103131.03;5135110;27;20494;-70
2021/03/02 08:30:15;;;;;;;7.53;4.37;;;;;;;10.08;100.00;103128.03;5147742;27;20901;-71
2021/03/02 08:32:43;;;;;;;8.00;4.40;;;;;;;9.94;100.00;103122.25;5152828;27;20479;-74
2021/03/02 08:35:20;;;;;;;6.93;4.03;;;;;;;10.15;100.00;103123.47;5154427;27;20396;-76
2021/03/02 08:37:58;;;;;;;8.07;4.27;;;;;;;10.24;100.00;103120.63;5154802;27;20988;-75
2021/03/02 08:40:32;;;;;;;7.00;5.03;;;;;;;10.28;100.00;103123.13;5154689;27;20399;-75
2021/03/02 08:43:16;;;;;;;7.40;4.17;;;;;;;10.36;100.00;103117.69;5154067;27;20418;-72
2021/03/02 08:45:48;;;;;;;6.80;4.60;;;;;;;10.55;100.00;103115.38;5157587;27;20421;-76
2021/03/02 08:48:23;;;;;;;6.50;4.37;;;;;;;10.72;92.50;103107.00;5163591;27;20403;-76
2021/03/02 08:50:52;;;;;;;7.83;4.20;;;;;;;10.17;100.00;103116.41;5154823;27;20446;-75
2021/03/02 08:53:29;;;;;;;8.10;5.53;;;;;;;10.02;100.00;103123.78;5154565;27;20419;-73
2021/03/02 08:55:55;;;;;;;10.23;6.67;;;;;;;9.96;100.00;103125.69;5153768;27;20406;-77
2021/03/02 08:58:32;;;;;;;7.10;4.80;;;;;;;10.40;96.00;103115.81;5152752;27;20417;-70
2021/03/02 09:01:18;;;;;;;5.83;3.93;;;;;;;10.21;95.52;103121.53;5140006;27;20835;-71
2021/03/02 09:03:46;;;;;;;7.10;3.73;;;;;;;9.99;98.22;103121.25;5161734;27;20510;-76
2021/03/02 09:06:17;;;;;;;7.70;4.40;;;;;;;10.25;99.11;103115.31;5163645;27;20403;-78
2021/03/02 09:09:05;;;;;;;6.70;3.60;;;;;;;10.42;98.23;103119.25;5158981;27;20478;-74
2021/03/02 09:11:41;;;;;;;6.20;3.23;;;;;;;10.30;94.23;103125.72;5155290;27;20482;-74
2021/03/02 09:14:23;;;;;;;6.93;4.13;;;;;;;9.83;100.00;103133.03;5136120;27;20415;-73
2021/03/02 09:17:00;;;;;;;9.40;5.50;;;;;;;9.85;100.00;103123.34;5154763;27;20388;-75
2021/03/02 09:19:29;;;;;;;5.20;3.80;;;;;;;10.02;100.00;103130.78;5154772;27;20682;-77
2021/03/02 09:22:04;;;;;;;6.63;4.33;;;;;;;10.07;100.00;103117.56;5154183;27;20490;-77
2021/03/02 09:24:32;;;;;;;5.93;3.73;;;;;;;10.03;100.00;103116.75;5152536;27;20450;-75
2021/03/02 09:26:58;;;;;;;10.50;4.70;;;;;;;10.07;100.00;103128.06;5154024;27;20399;-76
2021/03/02 09:29:26;;;;;;;7.20;5.00;;;;;;;10.12;100.00;103121.75;5153197;27;20441;-74
2021/03/02 09:31:55;;;;;;;5.83;4.60;;;;;;;10.11;100.00;103122.66;5154196;27;20215;-78
2021/03/02 09:34:21;;;;;;;5.93;3.90;;;;;;;9.98;100.00;103123.91;5153316;27;20466;-80
2021/03/02 09:36:47;;;;;;;16.07;11.83;;;;;;;10.17;100.00;103122.50;5154066;27;20411;-77
2021/03/02 09:39:24;;;;;;;8.67;3.77;;;;;;;10.36;100.00;103120.31;5154062;27;20313;-79
2021/03/02 09:41:51;;;;;;;6.53;4.33;;;;;;;10.31;100.00;103116.94;5150255;27;20443;-81
2021/03/02 09:44:24;;;;;;;7.47;4.53;;;;;;;10.21;100.00;103121.53;5134706;27;20982;-75
2021/03/02 09:46:52;;;;;;;9.73;4.47;;;;;;;10.02;100.00;103120.28;5154030;27;21012;-79
2021/03/02 09:49:35;;;;;;;10.67;4.07;;;;;;;10.01;100.00;103123.81;5154291;27;20456;-79
2021/03/02 09:52:01;;;;;;;6.03;3.70;;;;;;;10.27;98.21;103112.66;5154143;27;20450;-78
2021/03/02 09:54:27;;;;;;;5.07;3.43;;;;;;;9.87;100.00;103113.66;5154499;27;20398;-81
2021/03/02 09:56:58;;;;;;;6.03;4.07;;;;;;;9.91;100.00;103112.69;5153978;27;20764;-76
2021/03/02 09:59:25;;;;;;;6.10;3.90;;;;;;;10.33;99.73;103109.00;5154285;27;20448;-75
2021/03/02 10:01:52;;;;;;;5.40;4.00;;;;;;;10.25;100.00;103111.84;5153202;27;20815;-78
2021/03/02 10:04:19;;;;;;;8.03;5.00;;;;;;;10.98;98.08;103101.00;5153869;27;20399;-79
2021/03/02 10:06:45;;;;;;;7.83;4.47;;;;;;;11.25;92.68;103099.25;5153814;27;20964;-79
2021/03/02 10:09:26;;;;;;;6.77;4.23;;;;;;;11.39;83.96;103094.41;5153907;27;20394;-77
2021/03/02 10:12:12;;;;;;;9.43;4.70;;;;;;;10.89;92.31;103099.50;5149661;27;20446;-79
2021/03/02 10:14:42;;;;;;;10.63;5.60;;;;;;;10.71;93.64;103095.63;5151128;27;20407;-77
2021/03/02 10:17:08;;;;;;;6.57;4.27;;;;;;;10.56;99.21;103090.81;5130940;27;20927;-78
2021/03/02 10:19:35;;;;;;;8.27;5.10;;;;;;;10.67;95.42;103091.38;5135553;27;20408;-77
2021/03/02 10:22:12;;;;;;;6.30;4.07;;;;;;;10.79;94.44;103082.25;5137081;27;20193;-75
2021/03/02 10:24:39;;;;;;;6.90;4.40;;;;;;;10.77;97.92;103087.56;5142711;27;20535;-74
2021/03/02 10:27:19;;;;;;;6.97;4.93;;;;;;;10.86;94.99;103083.78;5119571;27;20422;-79
2021/03/02 10:29:46;;;;;;;6.33;4.40;;;;;;;10.81;93.64;103076.06;5151914;27;20972;-75
2021/03/02 10:32:12;;;;;;;7.27;4.20;;;;;;;10.43;97.81;103071.94;5149195;27;20959;-75
2021/03/02 10:34:44;;;;;;;7.67;4.53;;;;;;;10.37;97.36;103072.09;5150437;27;20495;-73
2021/03/02 10:37:11;;;;;;;7.87;5.10;;;;;;;10.71;97.68;103066.69;5149783;27;20522;-75
2021/03/02 10:39:38;;;;;;;7.73;5.10;;;;;;;11.18;91.64;103053.84;5149484;27;20415;-80
2021/03/02 10:42:05;;;;;;;7.77;5.03;;;;;;;11.15;92.68;103059.22;5152774;27;20407;-78
2021/03/02 10:44:31;;;;;;;10.13;4.60;;;;;;;11.18;95.24;103069.63;5152359;27;20388;-78
2021/03/02 10:46:56;;;;;;;6.27;4.80;;;;;;;11.41;92.49;103053.13;5151566;27;20449;-79
2021/03/02 10:49:22;;;;;;;8.13;4.37;;;;;;;11.14;96.61;103048.75;5150921;27;20601;-77
2021/03/02 10:51:49;;;;;;;6.87;4.70;;;;;;;10.92;100.00;103053.81;5141451;27;20238;-74
2021/03/02 10:54:14;;;;;;;5.97;5.20;;;;;;;10.70;98.82;103049.22;5150635;27;20211;-78
2021/03/02 10:56:40;;;;;;;6.90;4.80;;;;;;;10.91;97.24;103049.47;5152584;27;20425;-80
2021/03/02 10:59:06;;;;;;;14.53;8.17;;;;;;;10.70;99.94;103045.72;5153075;27;20221;-77
2021/03/02 11:01:32;;;;;;;7.23;4.90;;;;;;;10.42;100.00;103036.00;5152412;27;20194;-79
2021/03/02 11:03:58;;;;;;;9.40;6.13;;;;;;;10.23;100.00;103037.47;5139507;27;20180;-75
2021/03/02 11:06:25;;;;;;;11.30;6.63;;;;;;;10.46;100.00;103032.41;5142090;27;20396;-76
2021/03/02 11:08:59;;;;;;;10.10;5.70;;;;;;;10.33;100.00;103032.81;5128678;27;20403;-75
2021/03/02 11:11:25;;;;;;;9.47;6.20;;;;;;;10.09;100.00;103032.56;5159430;27;20495;-76
2021/03/02 11:13:50;;;;;;;9.40;6.07;;;;;;;10.03;100.00;103030.09;5154632;27;20825;-76
2021/03/02 11:16:17;;;;;;;11.40;6.13;;;;;;;9.72;100.00;103028.28;5161008;27;20165;-77
2021/03/02 11:18:42;;;;;;;10.80;7.50;;;;;;;9.85;100.00;103026.22;5144124;27;20526;-79
2021/03/02 11:21:09;;;;;;;11.23;5.80;;;;;;;9.86;100.00;103021.81;5161034;27;20882;-80
2021/03/02 11:23:35;;;;;;;8.40;6.20;;;;;;;10.01;100.00;103014.38;5172228;27;20161;-79
2021/03/02 11:26:01;;;;;;;10.30;7.10;;;;;;;10.20;100.00;103014.75;5136198;27;20846;-76
2021/03/02 11:28:26;;;;;;;7.03;5.83;;;;;;;10.48;100.00;103011.31;5130999;28;20643;-73